sensor_id;sensor_type;location;lat;lon;timestamp;temperature;humidity
77052;SHT30;65980;44.898;8.602;2023-12-20T00:01:17;2.68;84.40
77052;SHT30;65980;44.898;8.602;2023-12-20T00:04:21;2.69;84.40
77052;SHT30;65980;44.898;8.602;2023-12-20T00:07:26;3.00;83.15
77052;SHT30;65980;44.898;8.602;2023-12-20T00:10:30;3.23;81.88
77052;SHT30;65980;44.898;8.602;2023-12-20T00:13:34;3.44;81.11
77052;SHT30;65980;44.898;8.602;2023-12-20T00:16:39;3.55;79.68
77052;SHT30;65980;44.898;8.602;2023-12-20T00:19:44;3.52;79.47
77052;SHT30;65980;44.898;8.602;2023-12-20T00:22:49;3.34;78.61
77052;SHT30;65980;44.898;8.602;2023-12-20T00:25:55;2.97;80.93
77052;SHT30;65980;44.898;8.602;2023-12-20T00:28:59;3.12;80.92
77052;SHT30;65980;44.898;8.602;2023-12-20T00:32:03;3.03;80.02
77052;SHT30;65980;44.898;8.602;2023-12-20T00:35:08;3.07;80.31
77052;SHT30;65980;44.898;8.602;2023-12-20T00:38:12;3.14;80.13
77052;SHT30;65980;44.898;8.602;2023-12-20T00:41:16;2.81;81.57
77052;SHT30;65980;44.898;8.602;2023-12-20T00:44:20;2.78;81.16
77052;SHT30;65980;44.898;8.602;2023-12-20T00:47:24;2.65;81.24
77052;SHT30;65980;44.898;8.602;2023-12-20T00:50:28;2.51;81.83
77052;SHT30;65980;44.898;8.602;2023-12-20T00:53:33;2.55;82.30
77052;SHT30;65980;44.898;8.602;2023-12-20T00:56:37;2.85;82.22
77052;SHT30;65980;44.898;8.602;2023-12-20T00:59:41;3.04;81.71
77052;SHT30;65980;44.898;8.602;2023-12-20T01:02:46;2.89;81.00
77052;SHT30;65980;44.898;8.602;2023-12-20T01:05:53;2.09;84.52
77052;SHT30;65980;44.898;8.602;2023-12-20T01:08:57;2.37;85.46
77052;SHT30;65980;44.898;8.602;2023-12-20T01:12:02;2.48;84.73
77052;SHT30;65980;44.898;8.602;2023-12-20T01:15:10;2.75;83.25
77052;SHT30;65980;44.898;8.602;2023-12-20T01:18:14;2.91;82.71
77052;SHT30;65980;44.898;8.602;2023-12-20T01:21:19;2.84;83.00
77052;SHT30;65980;44.898;8.602;2023-12-20T01:24:24;2.91;82.75
77052;SHT30;65980;44.898;8.602;2023-12-20T01:27:27;2.47;84.08
77052;SHT30;65980;44.898;8.602;2023-12-20T01:30:32;2.21;85.11
77052;SHT30;65980;44.898;8.602;2023-12-20T01:33:36;2.09;85.25
77052;SHT30;65980;44.898;8.602;2023-12-20T01:36:40;2.13;85.33
77052;SHT30;65980;44.898;8.602;2023-12-20T01:39:44;2.20;85.68
77052;SHT30;65980;44.898;8.602;2023-12-20T01:43:07;2.21;84.89
77052;SHT30;65980;44.898;8.602;2023-12-20T01:46:12;2.64;83.94
77052;SHT30;65980;44.898;8.602;2023-12-20T01:49:17;2.84;82.56
77052;SHT30;65980;44.898;8.602;2023-12-20T01:52:21;3.04;81.61
77052;SHT30;65980;44.898;8.602;2023-12-20T01:55:27;3.06;81.10
77052;SHT30;65980;44.898;8.602;2023-12-20T01:58:33;2.33;83.50
77052;SHT30;65980;44.898;8.602;2023-12-20T02:01:39;2.12;85.44
77052;SHT30;65980;44.898;8.602;2023-12-20T02:04:43;2.26;85.27
77052;SHT30;65980;44.898;8.602;2023-12-20T02:07:47;2.51;84.13
77052;SHT30;65980;44.898;8.602;2023-12-20T02:10:51;2.58;82.54
77052;SHT30;65980;44.898;8.602;2023-12-20T02:13:56;2.52;83.80
77052;SHT30;65980;44.898;8.602;2023-12-20T02:17:01;2.71;82.28
77052;SHT30;65980;44.898;8.602;2023-12-20T02:20:06;2.93;81.44
77052;SHT30;65980;44.898;8.602;2023-12-20T02:23:10;2.20;84.00
77052;SHT30;65980;44.898;8.602;2023-12-20T02:26:15;2.19;84.83
77052;SHT30;65980;44.898;8.602;2023-12-20T02:29:20;2.06;85.18
77052;SHT30;65980;44.898;8.602;2023-12-20T02:32:24;2.29;84.54
77052;SHT30;65980;44.898;8.602;2023-12-20T02:35:32;2.20;84.75
77052;SHT30;65980;44.898;8.602;2023-12-20T02:38:37;1.98;85.17
77052;SHT30;65980;44.898;8.602;2023-12-20T02:41:41;1.87;85.60
77052;SHT30;65980;44.898;8.602;2023-12-20T02:44:46;1.85;85.78
77052;SHT30;65980;44.898;8.602;2023-12-20T02:47:51;1.86;86.24
77052;SHT30;65980;44.898;8.602;2023-12-20T02:50:56;1.89;85.97
77052;SHT30;65980;44.898;8.602;2023-12-20T02:54:00;1.58;85.75
77052;SHT30;65980;44.898;8.602;2023-12-20T02:57:05;1.37;86.97
77052;SHT30;65980;44.898;8.602;2023-12-20T03:00:10;1.30;87.44
77052;SHT30;65980;44.898;8.602;2023-12-20T03:03:15;1.44;87.46
77052;SHT30;65980;44.898;8.602;2023-12-20T03:06:19;1.48;86.78
77052;SHT30;65980;44.898;8.602;2023-12-20T03:09:23;1.52;86.90
77052;SHT30;65980;44.898;8.602;2023-12-20T03:12:28;1.57;86.82
77052;SHT30;65980;44.898;8.602;2023-12-20T03:15:33;1.62;86.52
77052;SHT30;65980;44.898;8.602;2023-12-20T03:18:37;1.85;86.05
77052;SHT30;65980;44.898;8.602;2023-12-20T03:21:42;2.17;85.55
77052;SHT30;65980;44.898;8.602;2023-12-20T03:24:47;2.23;84.77
77052;SHT30;65980;44.898;8.602;2023-12-20T03:27:52;2.52;84.36
77052;SHT30;65980;44.898;8.602;2023-12-20T03:30:57;2.75;82.56
77052;SHT30;65980;44.898;8.602;2023-12-20T03:34:01;2.66;83.19
77052;SHT30;65980;44.898;8.602;2023-12-20T03:37:05;2.91;82.31
77052;SHT30;65980;44.898;8.602;2023-12-20T03:40:09;2.86;82.29
77052;SHT30;65980;44.898;8.602;2023-12-20T03:43:14;3.09;81.65
77052;SHT30;65980;44.898;8.602;2023-12-20T03:46:22;2.68;81.81
77052;SHT30;65980;44.898;8.602;2023-12-20T03:49:26;2.01;84.87
77052;SHT30;65980;44.898;8.602;2023-12-20T03:52:31;1.95;85.49
77052;SHT30;65980;44.898;8.602;2023-12-20T03:55:35;1.83;85.35
77052;SHT30;65980;44.898;8.602;2023-12-20T03:58:40;1.93;85.74
77052;SHT30;65980;44.898;8.602;2023-12-20T04:01:45;2.07;84.67
77052;SHT30;65980;44.898;8.602;2023-12-20T04:04:49;1.69;85.68
77052;SHT30;65980;44.898;8.602;2023-12-20T04:07:53;1.92;85.86
77052;SHT30;65980;44.898;8.602;2023-12-20T04:10:58;2.01;85.36
77052;SHT30;65980;44.898;8.602;2023-12-20T04:14:02;2.06;85.23
77052;SHT30;65980;44.898;8.602;2023-12-20T04:17:05;2.19;84.47
77052;SHT30;65980;44.898;8.602;2023-12-20T04:20:11;2.37;84.48
77052;SHT30;65980;44.898;8.602;2023-12-20T04:23:14;2.41;83.01
77052;SHT30;65980;44.898;8.602;2023-12-20T04:26:19;2.48;83.31
77052;SHT30;65980;44.898;8.602;2023-12-20T04:29:22;2.68;82.56
77052;SHT30;65980;44.898;8.602;2023-12-20T04:32:28;2.58;82.16
77052;SHT30;65980;44.898;8.602;2023-12-20T04:35:33;2.64;82.52
77052;SHT30;65980;44.898;8.602;2023-12-20T04:38:36;2.81;80.67
77052;SHT30;65980;44.898;8.602;2023-12-20T04:41:41;2.59;82.02
77052;SHT30;65980;44.898;8.602;2023-12-20T04:44:46;2.72;81.97
77052;SHT30;65980;44.898;8.602;2023-12-20T04:47:51;2.27;83.77
77052;SHT30;65980;44.898;8.602;2023-12-20T04:50:55;2.09;84.37
77052;SHT30;65980;44.898;8.602;2023-12-20T04:54:00;2.07;85.05
77052;SHT30;65980;44.898;8.602;2023-12-20T04:57:05;2.20;85.44
77052;SHT30;65980;44.898;8.602;2023-12-20T05:00:09;2.33;84.57
77052;SHT30;65980;44.898;8.602;2023-12-20T05:03:14;2.65;84.70
77052;SHT30;65980;44.898;8.602;2023-12-20T05:06:17;2.75;83.58
77052;SHT30;65980;44.898;8.602;2023-12-20T05:09:22;2.91;83.56
77052;SHT30;65980;44.898;8.602;2023-12-20T05:12:25;2.47;84.36
77052;SHT30;65980;44.898;8.602;2023-12-20T05:15:31;2.74;83.91
77052;SHT30;65980;44.898;8.602;2023-12-20T05:18:35;2.68;83.33
77052;SHT30;65980;44.898;8.602;2023-12-20T05:21:38;2.41;84.52
77052;SHT30;65980;44.898;8.602;2023-12-20T05:24:42;2.30;84.73
77052;SHT30;65980;44.898;8.602;2023-12-20T05:27:48;2.16;85.01
77052;SHT30;65980;44.898;8.602;2023-12-20T05:30:52;2.06;85.38
77052;SHT30;65980;44.898;8.602;2023-12-20T05:33:55;1.87;86.11
77052;SHT30;65980;44.898;8.602;2023-12-20T05:36:59;1.92;86.31
77052;SHT30;65980;44.898;8.602;2023-12-20T05:40:04;2.03;85.97
77052;SHT30;65980;44.898;8.602;2023-12-20T05:43:09;2.23;85.93
77052;SHT30;65980;44.898;8.602;2023-12-20T05:46:13;2.45;84.83
77052;SHT30;65980;44.898;8.602;2023-12-20T05:49:17;2.69;84.26
77052;SHT30;65980;44.898;8.602;2023-12-20T05:52:22;2.44;84.56
77052;SHT30;65980;44.898;8.602;2023-12-20T05:55:25;2.75;83.94
77052;SHT30;65980;44.898;8.602;2023-12-20T05:58:30;3.00;82.74
77052;SHT30;65980;44.898;8.602;2023-12-20T06:01:35;2.93;81.88
77052;SHT30;65980;44.898;8.602;2023-12-20T06:04:42;2.97;82.49
77052;SHT30;65980;44.898;8.602;2023-12-20T06:07:48;2.76;83.26
77052;SHT30;65980;44.898;8.602;2023-12-20T06:10:55;2.61;83.81
77052;SHT30;65980;44.898;8.602;2023-12-20T06:14:00;2.75;83.60
77052;SHT30;65980;44.898;8.602;2023-12-20T06:17:03;3.06;83.20
77052;SHT30;65980;44.898;8.602;2023-12-20T06:20:09;3.24;81.65
77052;SHT30;65980;44.898;8.602;2023-12-20T06:23:14;2.72;82.96
77052;SHT30;65980;44.898;8.602;2023-12-20T06:26:17;2.40;84.39
77052;SHT30;65980;44.898;8.602;2023-12-20T06:29:24;2.52;83.91
77052;SHT30;65980;44.898;8.602;2023-12-20T06:32:29;2.64;83.68
77052;SHT30;65980;44.898;8.602;2023-12-20T06:35:33;2.57;84.23
77052;SHT30;65980;44.898;8.602;2023-12-20T06:38:37;2.74;83.28
77052;SHT30;65980;44.898;8.602;2023-12-20T06:41:41;2.45;84.17
77052;SHT30;65980;44.898;8.602;2023-12-20T06:44:48;2.66;83.71
77052;SHT30;65980;44.898;8.602;2023-12-20T06:48:17;2.97;83.56
77052;SHT30;65980;44.898;8.602;2023-12-20T06:51:21;3.16;82.13
77052;SHT30;65980;44.898;8.602;2023-12-20T06:54:30;3.02;83.48
77052;SHT30;65980;44.898;8.602;2023-12-20T06:57:34;3.38;82.12
77052;SHT30;65980;44.898;8.602;2023-12-20T07:00:40;3.40;81.00
77052;SHT30;65980;44.898;8.602;2023-12-20T07:03:46;3.32;82.13
77052;SHT30;65980;44.898;8.602;2023-12-20T07:06:50;3.19;82.02
77052;SHT30;65980;44.898;8.602;2023-12-20T07:10:00;3.13;82.07
77052;SHT30;65980;44.898;8.602;2023-12-20T07:13:04;3.42;81.43
77052;SHT30;65980;44.898;8.602;2023-12-20T07:16:08;3.47;81.34
77052;SHT30;65980;44.898;8.602;2023-12-20T07:19:19;3.45;81.61
77052;SHT30;65980;44.898;8.602;2023-12-20T07:22:27;3.69;79.94
77052;SHT30;65980;44.898;8.602;2023-12-20T07:25:32;3.75;79.49
77052;SHT30;65980;44.898;8.602;2023-12-20T07:28:36;3.54;80.16
77052;SHT30;65980;44.898;8.602;2023-12-20T07:31:40;3.38;80.96
77052;SHT30;65980;44.898;8.602;2023-12-20T07:34:46;3.40;81.50
77052;SHT30;65980;44.898;8.602;2023-12-20T07:37:55;3.67;80.33
77052;SHT30;65980;44.898;8.602;2023-12-20T07:40:59;3.82;79.76
77052;SHT30;65980;44.898;8.602;2023-12-20T07:44:04;3.97;79.52
77052;SHT30;65980;44.898;8.602;2023-12-20T07:47:11;4.09;78.83
77052;SHT30;65980;44.898;8.602;2023-12-20T07:50:23;4.20;78.79
77052;SHT30;65980;44.898;8.602;2023-12-20T07:53:27;4.29;78.56
77052;SHT30;65980;44.898;8.602;2023-12-20T07:56:31;4.33;78.00
77052;SHT30;65980;44.898;8.602;2023-12-20T07:59:36;4.33;78.29
77052;SHT30;65980;44.898;8.602;2023-12-20T08:02:43;4.38;77.65
77052;SHT30;65980;44.898;8.602;2023-12-20T08:05:47;4.25;77.76
77052;SHT30;65980;44.898;8.602;2023-12-20T08:08:51;4.18;78.31
77052;SHT30;65980;44.898;8.602;2023-12-20T08:11:55;3.97;79.40
77052;SHT30;65980;44.898;8.602;2023-12-20T08:14:59;3.93;79.40
77052;SHT30;65980;44.898;8.602;2023-12-20T08:18:04;4.11;79.10
77052;SHT30;65980;44.898;8.602;2023-12-20T08:21:10;4.24;78.67
77052;SHT30;65980;44.898;8.602;2023-12-20T08:24:16;4.23;78.35
77052;SHT30;65980;44.898;8.602;2023-12-20T08:27:20;4.23;78.42
77052;SHT30;65980;44.898;8.602;2023-12-20T08:30:24;4.20;79.47
77052;SHT30;65980;44.898;8.602;2023-12-20T08:33:28;3.82;81.08
77052;SHT30;65980;44.898;8.602;2023-12-20T08:36:32;3.97;80.05
77052;SHT30;65980;44.898;8.602;2023-12-20T08:39:41;4.20;79.80
77052;SHT30;65980;44.898;8.602;2023-12-20T08:42:47;4.41;79.79
77052;SHT30;65980;44.898;8.602;2023-12-20T08:45:51;4.69;78.79
77052;SHT30;65980;44.898;8.602;2023-12-20T08:48:55;4.79;77.67
77052;SHT30;65980;44.898;8.602;2023-12-20T08:52:00;4.66;77.77
77052;SHT30;65980;44.898;8.602;2023-12-20T08:55:08;4.29;79.11
77052;SHT30;65980;44.898;8.602;2023-12-20T08:58:14;3.92;80.73
77052;SHT30;65980;44.898;8.602;2023-12-20T09:01:19;3.86;81.34
77052;SHT30;65980;44.898;8.602;2023-12-20T09:04:23;3.93;81.73
77052;SHT30;65980;44.898;8.602;2023-12-20T09:07:27;4.13;81.64
77052;SHT30;65980;44.898;8.602;2023-12-20T09:10:34;4.14;81.01
77052;SHT30;65980;44.898;8.602;2023-12-20T09:13:38;4.04;81.39
77052;SHT30;65980;44.898;8.602;2023-12-20T09:16:43;3.99;81.99
77052;SHT30;65980;44.898;8.602;2023-12-20T09:19:47;3.85;82.89
77052;SHT30;65980;44.898;8.602;2023-12-20T09:22:52;3.92;82.44
77052;SHT30;65980;44.898;8.602;2023-12-20T09:25:56;4.10;81.92
77052;SHT30;65980;44.898;8.602;2023-12-20T09:29:01;4.07;81.59
77052;SHT30;65980;44.898;8.602;2023-12-20T09:32:05;3.67;82.63
77052;SHT30;65980;44.898;8.602;2023-12-20T09:35:10;3.44;83.07
77052;SHT30;65980;44.898;8.602;2023-12-20T09:38:15;3.72;82.58
77052;SHT30;65980;44.898;8.602;2023-12-20T09:41:23;3.76;82.56
77052;SHT30;65980;44.898;8.602;2023-12-20T09:44:27;4.13;81.48
77052;SHT30;65980;44.898;8.602;2023-12-20T09:47:32;3.90;80.96
77052;SHT30;65980;44.898;8.602;2023-12-20T09:50:41;4.03;80.61
77052;SHT30;65980;44.898;8.602;2023-12-20T09:53:48;4.07;80.74
77052;SHT30;65980;44.898;8.602;2023-12-20T09:56:54;4.03;81.33
77052;SHT30;65980;44.898;8.602;2023-12-20T09:59:59;3.99;81.04
77052;SHT30;65980;44.898;8.602;2023-12-20T10:03:03;4.17;80.93
77052;SHT30;65980;44.898;8.602;2023-12-20T10:06:10;4.55;79.91
77052;SHT30;65980;44.898;8.602;2023-12-20T10:09:15;4.87;79.05
77052;SHT30;65980;44.898;8.602;2023-12-20T10:12:19;4.73;79.23
77052;SHT30;65980;44.898;8.602;2023-12-20T10:15:23;4.75;79.27
77052;SHT30;65980;44.898;8.602;2023-12-20T10:18:29;4.95;79.94
77052;SHT30;65980;44.898;8.602;2023-12-20T10:21:37;5.14;78.91
77052;SHT30;65980;44.898;8.602;2023-12-20T10:24:42;4.83;79.97
77052;SHT30;65980;44.898;8.602;2023-12-20T10:27:47;4.59;80.72
77052;SHT30;65980;44.898;8.602;2023-12-20T10:30:52;4.47;81.39
77052;SHT30;65980;44.898;8.602;2023-12-20T10:34:01;4.45;81.75
77052;SHT30;65980;44.898;8.602;2023-12-20T10:37:05;4.41;81.12
77052;SHT30;65980;44.898;8.602;2023-12-20T10:40:12;4.52;81.99
77052;SHT30;65980;44.898;8.602;2023-12-20T10:43:18;4.61;81.61
77052;SHT30;65980;44.898;8.602;2023-12-20T10:46:22;4.57;82.13
77052;SHT30;65980;44.898;8.602;2023-12-20T10:49:29;4.68;82.40
77052;SHT30;65980;44.898;8.602;2023-12-20T10:52:34;4.66;82.24
77052;SHT30;65980;44.898;8.602;2023-12-20T10:55:39;4.62;81.50
77052;SHT30;65980;44.898;8.602;2023-12-20T10:58:45;4.97;80.37
77052;SHT30;65980;44.898;8.602;2023-12-20T11:01:55;5.14;79.14
77052;SHT30;65980;44.898;8.602;2023-12-20T11:05:09;5.10;79.36
77052;SHT30;65980;44.898;8.602;2023-12-20T11:08:26;5.26;80.63
77052;SHT30;65980;44.898;8.602;2023-12-20T11:11:37;5.35;79.30
77052;SHT30;65980;44.898;8.602;2023-12-20T11:14:47;5.69;77.92
77052;SHT30;65980;44.898;8.602;2023-12-20T11:17:56;5.73;77.18
77052;SHT30;65980;44.898;8.602;2023-12-20T11:21:08;5.76;77.05
77052;SHT30;65980;44.898;8.602;2023-12-20T11:24:15;5.96;76.50
77052;SHT30;65980;44.898;8.602;2023-12-20T11:27:20;6.13;76.51
77052;SHT30;65980;44.898;8.602;2023-12-20T11:30:25;6.49;75.25
77052;SHT30;65980;44.898;8.602;2023-12-20T11:34:12;6.58;74.43
77052;SHT30;65980;44.898;8.602;2023-12-20T11:37:19;6.53;74.81
77052;SHT30;65980;44.898;8.602;2023-12-20T11:40:27;6.34;77.05
77052;SHT30;65980;44.898;8.602;2023-12-20T11:43:40;6.41;76.17
77052;SHT30;65980;44.898;8.602;2023-12-20T11:46:45;6.86;74.76
77052;SHT30;65980;44.898;8.602;2023-12-20T11:49:49;7.14;73.94
77052;SHT30;65980;44.898;8.602;2023-12-20T11:52:56;7.87;71.79
77052;SHT30;65980;44.898;8.602;2023-12-20T11:56:00;7.83;70.90
77052;SHT30;65980;44.898;8.602;2023-12-20T11:59:08;8.07;70.86
77052;SHT30;65980;44.898;8.602;2023-12-20T12:02:14;8.04;70.79
77052;SHT30;65980;44.898;8.602;2023-12-20T12:05:19;7.75;71.55
77052;SHT30;65980;44.898;8.602;2023-12-20T12:08:26;7.34;73.38
77052;SHT30;65980;44.898;8.602;2023-12-20T12:11:34;7.18;74.43
77052;SHT30;65980;44.898;8.602;2023-12-20T12:14:38;6.97;75.67
77052;SHT30;65980;44.898;8.602;2023-12-20T12:17:52;6.94;76.44
77052;SHT30;65980;44.898;8.602;2023-12-20T12:21:01;7.07;76.24
77052;SHT30;65980;44.898;8.602;2023-12-20T12:24:09;7.36;75.66
77052;SHT30;65980;44.898;8.602;2023-12-20T12:27:15;7.48;75.16
77052;SHT30;65980;44.898;8.602;2023-12-20T12:30:20;7.73;74.64
77052;SHT30;65980;44.898;8.602;2023-12-20T12:33:25;7.93;74.08
77052;SHT30;65980;44.898;8.602;2023-12-20T12:36:30;8.22;73.39
77052;SHT30;65980;44.898;8.602;2023-12-20T12:39:36;8.52;72.13
77052;SHT30;65980;44.898;8.602;2023-12-20T12:42:47;8.31;72.33
77052;SHT30;65980;44.898;8.602;2023-12-20T12:46:05;8.34;72.63
77052;SHT30;65980;44.898;8.602;2023-12-20T12:49:12;8.45;72.47
77052;SHT30;65980;44.898;8.602;2023-12-20T12:52:17;8.22;72.64
77052;SHT30;65980;44.898;8.602;2023-12-20T12:55:23;7.93;73.97
77052;SHT30;65980;44.898;8.602;2023-12-20T12:58:28;7.76;75.18
77052;SHT30;65980;44.898;8.602;2023-12-20T13:01:33;8.07;74.65
77052;SHT30;65980;44.898;8.602;2023-12-20T13:04:38;8.35;73.03
77052;SHT30;65980;44.898;8.602;2023-12-20T13:07:43;8.24;73.51
77052;SHT30;65980;44.898;8.602;2023-12-20T13:10:50;7.98;74.21
77052;SHT30;65980;44.898;8.602;2023-12-20T13:13:55;7.97;75.04
77052;SHT30;65980;44.898;8.602;2023-12-20T13:17:01;8.20;74.60
77052;SHT30;65980;44.898;8.602;2023-12-20T13:20:05;9.05;71.93
77052;SHT30;65980;44.898;8.602;2023-12-20T13:23:13;10.48;66.34
77052;SHT30;65980;44.898;8.602;2023-12-20T13:26:18;11.46;62.92
77052;SHT30;65980;44.898;8.602;2023-12-20T13:29:24;11.89;61.69
77052;SHT30;65980;44.898;8.602;2023-12-20T13:32:28;11.31;63.58
77052;SHT30;65980;44.898;8.602;2023-12-20T13:35:32;10.72;64.97
77052;SHT30;65980;44.898;8.602;2023-12-20T13:38:36;10.27;66.51
77052;SHT30;65980;44.898;8.602;2023-12-20T13:41:41;9.90;67.98
77052;SHT30;65980;44.898;8.602;2023-12-20T13:44:45;9.72;68.55
77052;SHT30;65980;44.898;8.602;2023-12-20T13:47:49;9.52;69.14
77052;SHT30;65980;44.898;8.602;2023-12-20T13:50:58;9.38;69.73
77052;SHT30;65980;44.898;8.602;2023-12-20T13:54:02;9.34;70.26
77052;SHT30;65980;44.898;8.602;2023-12-20T13:57:33;9.30;71.10
77052;SHT30;65980;44.898;8.602;2023-12-20T14:00:37;9.20;72.13
77052;SHT30;65980;44.898;8.602;2023-12-20T14:03:42;8.91;73.00
77052;SHT30;65980;44.898;8.602;2023-12-20T14:06:45;8.83;73.20
77052;SHT30;65980;44.898;8.602;2023-12-20T14:09:50;8.86;73.28
77052;SHT30;65980;44.898;8.602;2023-12-20T14:12:55;8.77;73.41
77052;SHT30;65980;44.898;8.602;2023-12-20T14:16:00;8.70;73.73
77052;SHT30;65980;44.898;8.602;2023-12-20T14:19:06;8.52;73.99
77052;SHT30;65980;44.898;8.602;2023-12-20T14:22:12;8.44;74.43
77052;SHT30;65980;44.898;8.602;2023-12-20T14:25:21;8.45;74.83
77052;SHT30;65980;44.898;8.602;2023-12-20T14:28:29;8.56;74.47
77052;SHT30;65980;44.898;8.602;2023-12-20T14:31:36;8.69;74.41
77052;SHT30;65980;44.898;8.602;2023-12-20T14:34:55;8.72;74.46
77052;SHT30;65980;44.898;8.602;2023-12-20T14:37:59;8.63;74.73
77052;SHT30;65980;44.898;8.602;2023-12-20T14:41:04;8.72;74.52
77052;SHT30;65980;44.898;8.602;2023-12-20T14:44:10;8.62;74.37
77052;SHT30;65980;44.898;8.602;2023-12-20T14:47:21;8.55;74.74
77052;SHT30;65980;44.898;8.602;2023-12-20T14:50:28;8.22;75.75
77052;SHT30;65980;44.898;8.602;2023-12-20T14:53:44;8.42;74.94
77052;SHT30;65980;44.898;8.602;2023-12-20T14:56:48;8.39;75.44
77052;SHT30;65980;44.898;8.602;2023-12-20T14:59:55;8.14;76.62
77052;SHT30;65980;44.898;8.602;2023-12-20T15:03:21;8.25;76.43
77052;SHT30;65980;44.898;8.602;2023-12-20T15:06:26;8.32;75.95
77052;SHT30;65980;44.898;8.602;2023-12-20T15:09:31;8.42;75.84
77052;SHT30;65980;44.898;8.602;2023-12-20T15:12:36;8.46;75.49
77052;SHT30;65980;44.898;8.602;2023-12-20T15:15:43;8.50;75.37
77052;SHT30;65980;44.898;8.602;2023-12-20T15:18:48;8.50;75.27
77052;SHT30;65980;44.898;8.602;2023-12-20T15:21:52;8.50;75.12
77052;SHT30;65980;44.898;8.602;2023-12-20T15:24:55;8.44;74.79
77052;SHT30;65980;44.898;8.602;2023-12-20T15:28:03;8.39;74.79
77052;SHT30;65980;44.898;8.602;2023-12-20T15:31:07;8.37;74.67
77052;SHT30;65980;44.898;8.602;2023-12-20T15:34:15;8.15;75.92
77052;SHT30;65980;44.898;8.602;2023-12-20T15:37:19;7.17;79.31
77052;SHT30;65980;44.898;8.602;2023-12-20T15:40:23;7.11;79.48
77052;SHT30;65980;44.898;8.602;2023-12-20T15:43:27;7.27;79.02
77052;SHT30;65980;44.898;8.602;2023-12-20T15:46:32;7.42;77.87
77052;SHT30;65980;44.898;8.602;2023-12-20T15:49:36;7.44;78.15
77052;SHT30;65980;44.898;8.602;2023-12-20T15:52:41;7.52;77.89
77052;SHT30;65980;44.898;8.602;2023-12-20T15:55:47;7.58;77.72
77052;SHT30;65980;44.898;8.602;2023-12-20T15:58:52;7.58;77.11
77052;SHT30;65980;44.898;8.602;2023-12-20T16:02:02;7.56;77.58
77052;SHT30;65980;44.898;8.602;2023-12-20T16:05:18;7.58;77.55
77052;SHT30;65980;44.898;8.602;2023-12-20T16:08:23;7.47;77.51
77052;SHT30;65980;44.898;8.602;2023-12-20T16:11:30;7.45;77.44
77052;SHT30;65980;44.898;8.602;2023-12-20T16:14:41;7.36;77.39
77052;SHT30;65980;44.898;8.602;2023-12-20T16:17:47;7.28;77.80
77052;SHT30;65980;44.898;8.602;2023-12-20T16:20:53;7.22;77.97
77052;SHT30;65980;44.898;8.602;2023-12-20T16:23:58;7.20;78.34
77052;SHT30;65980;44.898;8.602;2023-12-20T16:27:05;7.17;78.90
77052;SHT30;65980;44.898;8.602;2023-12-20T16:30:10;7.07;79.17
77052;SHT30;65980;44.898;8.602;2023-12-20T16:33:17;7.04;79.28
77052;SHT30;65980;44.898;8.602;2023-12-20T16:36:21;7.03;78.62
77052;SHT30;65980;44.898;8.602;2023-12-20T16:39:26;6.96;78.53
77052;SHT30;65980;44.898;8.602;2023-12-20T16:42:33;6.55;80.52
77052;SHT30;65980;44.898;8.602;2023-12-20T16:45:37;6.68;79.36
77052;SHT30;65980;44.898;8.602;2023-12-20T16:48:53;6.59;79.84
77052;SHT30;65980;44.898;8.602;2023-12-20T16:51:58;6.68;79.52
77052;SHT30;65980;44.898;8.602;2023-12-20T16:55:05;6.62;79.34
77052;SHT30;65980;44.898;8.602;2023-12-20T16:58:10;6.32;80.98
77052;SHT30;65980;44.898;8.602;2023-12-20T17:01:16;6.35;80.87
77052;SHT30;65980;44.898;8.602;2023-12-20T17:04:21;6.40;80.60
77052;SHT30;65980;44.898;8.602;2023-12-20T17:07:27;6.48;80.08
77052;SHT30;65980;44.898;8.602;2023-12-20T17:10:31;6.55;79.71
77052;SHT30;65980;44.898;8.602;2023-12-20T17:13:36;6.55;79.70
77052;SHT30;65980;44.898;8.602;2023-12-20T17:16:41;6.52;79.65
77052;SHT30;65980;44.898;8.602;2023-12-20T17:19:45;6.53;79.73
77052;SHT30;65980;44.898;8.602;2023-12-20T17:22:50;6.53;79.23
77052;SHT30;65980;44.898;8.602;2023-12-20T17:25:53;6.49;79.04
77052;SHT30;65980;44.898;8.602;2023-12-20T17:28:58;6.21;79.75
77052;SHT30;65980;44.898;8.602;2023-12-20T17:32:03;5.21;83.98
77052;SHT30;65980;44.898;8.602;2023-12-20T17:35:09;5.34;84.92
77052;SHT30;65980;44.898;8.602;2023-12-20T17:38:14;5.51;83.26
77052;SHT30;65980;44.898;8.602;2023-12-20T17:41:18;5.59;81.77
77052;SHT30;65980;44.898;8.602;2023-12-20T17:44:23;5.54;82.02
77052;SHT30;65980;44.898;8.602;2023-12-20T17:47:31;5.56;82.09
77052;SHT30;65980;44.898;8.602;2023-12-20T17:50:35;5.54;81.96
77052;SHT30;65980;44.898;8.602;2023-12-20T17:53:48;5.48;81.81
77052;SHT30;65980;44.898;8.602;2023-12-20T17:56:54;5.49;82.02
77052;SHT30;65980;44.898;8.602;2023-12-20T18:00:19;5.48;81.52
77052;SHT30;65980;44.898;8.602;2023-12-20T18:03:25;5.54;82.03
77052;SHT30;65980;44.898;8.602;2023-12-20T18:06:30;5.56;81.74
77052;SHT30;65980;44.898;8.602;2023-12-20T18:09:35;5.20;82.14
77052;SHT30;65980;44.898;8.602;2023-12-20T18:12:40;4.51;86.57
77052;SHT30;65980;44.898;8.602;2023-12-20T18:15:44;4.64;88.26
77052;SHT30;65980;44.898;8.602;2023-12-20T18:18:50;4.64;87.98
77052;SHT30;65980;44.898;8.602;2023-12-20T18:21:55;4.44;87.16
77052;SHT30;65980;44.898;8.602;2023-12-20T18:25:01;4.61;86.82
77052;SHT30;65980;44.898;8.602;2023-12-20T18:28:06;4.69;87.50
77052;SHT30;65980;44.898;8.602;2023-12-20T18:31:11;4.59;87.59
77052;SHT30;65980;44.898;8.602;2023-12-20T18:34:16;4.77;87.22
77052;SHT30;65980;44.898;8.602;2023-12-20T18:37:20;4.95;85.51
77052;SHT30;65980;44.898;8.602;2023-12-20T18:40:25;4.83;83.67
77052;SHT30;65980;44.898;8.602;2023-12-20T18:43:31;4.99;84.11
77052;SHT30;65980;44.898;8.602;2023-12-20T18:46:38;4.87;84.04
77052;SHT30;65980;44.898;8.602;2023-12-20T18:49:42;4.82;84.11
77052;SHT30;65980;44.898;8.602;2023-12-20T18:52:46;4.48;86.73
77052;SHT30;65980;44.898;8.602;2023-12-20T18:55:50;4.66;86.04
77052;SHT30;65980;44.898;8.602;2023-12-20T18:58:55;4.85;85.44
77052;SHT30;65980;44.898;8.602;2023-12-20T19:02:01;4.69;85.60
77052;SHT30;65980;44.898;8.602;2023-12-20T19:05:06;4.11;87.76
77052;SHT30;65980;44.898;8.602;2023-12-20T19:08:14;4.31;87.08
77052;SHT30;65980;44.898;8.602;2023-12-20T19:11:22;4.27;87.82
77052;SHT30;65980;44.898;8.602;2023-12-20T19:14:26;4.42;87.40
77052;SHT30;65980;44.898;8.602;2023-12-20T19:17:30;4.33;86.64
77052;SHT30;65980;44.898;8.602;2023-12-20T19:20:34;4.57;85.72
77052;SHT30;65980;44.898;8.602;2023-12-20T19:23:38;4.45;86.05
77052;SHT30;65980;44.898;8.602;2023-12-20T19:26:47;4.72;85.16
77052;SHT30;65980;44.898;8.602;2023-12-20T19:29:51;4.82;84.45
77052;SHT30;65980;44.898;8.602;2023-12-20T19:33:00;4.72;84.85
77052;SHT30;65980;44.898;8.602;2023-12-20T19:36:06;4.83;84.57
77052;SHT30;65980;44.898;8.602;2023-12-20T19:39:10;4.75;84.57
77052;SHT30;65980;44.898;8.602;2023-12-20T19:42:15;4.34;85.98
77052;SHT30;65980;44.898;8.602;2023-12-20T19:45:19;4.47;86.95
77052;SHT30;65980;44.898;8.602;2023-12-20T19:48:23;4.13;84.61
77052;SHT30;65980;44.898;8.602;2023-12-20T19:51:27;4.42;82.93